Time;durP1;ratioP1;P1;durP2;ratioP2;P2;SDS_P1;SDS_P2;PMS_P1;PMS_P2;Temp;Humidity;BMP_temperature;BMP_pressure;BME280_temperature;BME280_humidity;BME280_pressure;Samples;Min_cycle;Max_cycle;Signal;HPM_P1;HPM_P2
2021/01/16 00:01:59;;;;;;;10.85;5.68;;;;;;;5.03;72.84;101488.56;4881011;29;20038;-74
2021/01/16 00:04:24;;;;;;;19.95;7.43;;;;;;;5.07;72.78;101492.53;4882192;29;20036;-75
2021/01/16 00:06:52;;;;;;;11.05;6.28;;;;;;;5.09;72.48;101481.50;4871709;29;20120;-76
2021/01/16 00:09:17;;;;;;;8.65;4.70;;;;;;;5.16;72.50;101478.81;4870584;29;20583;-74
2021/01/16 00:11:43;;;;;;;4.20;3.80;;;;;;;5.18;72.29;101465.88;4873148;29;20064;-72
2021/01/16 00:14:08;;;;;;;10.85;4.13;;;;;;;5.21;72.08;101470.88;4854930;29;20053;-75
2021/01/16 00:16:34;;;;;;;9.77;3.90;;;;;;;5.23;72.08;101457.97;4818659;29;20072;-75
2021/01/16 00:18:59;;;;;;;5.18;4.05;;;;;;;5.23;71.71;101458.81;4856770;29;20110;-75
2021/01/16 00:21:25;;;;;;;9.05;4.00;;;;;;;5.28;71.53;101458.19;4860701;29;20033;-74
2021/01/16 00:23:50;;;;;;;9.32;3.45;;;;;;;5.30;71.44;101461.53;4818636;29;20532;-76
2021/01/16 00:26:16;;;;;;;3.30;2.92;;;;;;;5.31;71.51;101463.19;4855654;29;20044;-74
2021/01/16 00:28:41;;;;;;;8.07;3.15;;;;;;;5.29;70.63;101448.19;4851130;29;20491;-75
2021/01/16 00:31:07;;;;;;;5.70;3.05;;;;;;;5.22;71.09;101426.47;4844619;29;20636;-75
2021/01/16 00:33:35;;;;;;;6.25;3.10;;;;;;;5.31;70.89;101430.63;4838094;29;20066;-73
2021/01/16 00:36:04;;;;;;;7.45;3.03;;;;;;;5.36;70.53;101440.88;4863460;29;20485;-75
2021/01/16 00:38:42;;;;;;;24.80;4.35;;;;;;;5.30;70.90;101428.13;4860064;29;20828;-74
2021/01/16 00:41:08;;;;;;;9.77;3.65;;;;;;;5.30;70.91;101430.84;4863451;29;20141;-74
2021/01/16 00:43:34;;;;;;;5.10;2.85;;;;;;;5.35;70.70;101447.34;4863979;29;20105;-77
2021/01/16 00:46:08;;;;;;;7.53;2.95;;;;;;;5.30;70.86;101418.16;4860976;29;20030;-73
2021/01/16 00:48:41;;;;;;;8.65;2.17;;;;;;;5.29;70.27;101415.63;4849857;29;20040;-75
2021/01/16 00:51:07;;;;;;;7.28;2.10;;;;;;;5.39;70.07;101422.31;4863726;29;20037;-74
2021/01/16 00:53:33;;;;;;;8.40;2.83;;;;;;;5.25;69.93;101388.06;4841957;29;20034;-75
2021/01/16 00:55:58;;;;;;;4.32;1.80;;;;;;;5.36;69.81;101406.47;4858661;29;20037;-74
2021/01/16 00:58:29;;;;;;;2.83;2.53;;;;;;;5.31;69.41;101408.13;4858922;29;20033;-77
2021/01/16 01:00:55;;;;;;;5.05;1.70;;;;;;;5.34;69.01;101403.09;4859352;29;20029;-76
2021/01/16 01:03:22;;;;;;;2.33;2.08;;;;;;;5.26;69.14;101378.91;4856246;29;20040;-78
2021/01/16 01:05:48;;;;;;;6.05;1.85;;;;;;;5.29;69.02;101374.97;4854745;29;20037;-76
2021/01/16 01:08:13;;;;;;;2.13;1.67;;;;;;;5.30;68.83;101369.31;4841106;29;20449;-77
2021/01/16 01:10:44;;;;;;;3.60;2.03;;;;;;;5.21;68.56;101362.41;4857606;29;20045;-78
2021/01/16 01:13:10;;;;;;;7.70;2.38;;;;;;;5.28;68.64;101393.09;4860671;29;20036;-77
2021/01/16 01:15:37;;;;;;;5.45;1.80;;;;;;;5.30;68.55;101374.75;4869259;29;20503;-76
2021/01/16 01:18:03;;;;;;;5.60;2.50;;;;;;;5.28;68.07;101378.69;4872687;29;20033;-77
2021/01/16 01:20:29;;;;;;;9.57;1.88;;;;;;;5.27;68.05;101375.16;4875823;29;20040;-77
2021/01/16 01:22:54;;;;;;;8.30;2.40;;;;;;;5.25;68.05;101388.06;4872444;29;20062;-74
2021/01/16 01:25:20;;;;;;;6.00;2.30;;;;;;;5.24;67.93;101364.72;4867046;29;20068;-77
2021/01/16 01:27:54;;;;;;;3.78;2.20;;;;;;;5.23;67.58;101380.16;4865532;29;20197;-76
2021/01/16 01:30:22;;;;;;;3.10;2.15;;;;;;;5.21;67.57;101363.25;4862042;29;20033;-76
2021/01/16 01:32:48;;;;;;;4.15;2.10;;;;;;;5.23;67.39;101368.47;4856074;29;20127;-78
2021/01/16 01:35:24;;;;;;;5.95;2.45;;;;;;;5.24;67.75;101376.41;4872961;29;20104;-76
2021/01/16 01:37:52;;;;;;;4.35;2.67;;;;;;;5.23;67.54;101380.16;4849538;29;20097;-76
2021/01/16 01:40:20;;;;;;;5.70;2.65;;;;;;;5.17;67.30;101369.28;4882882;29;20028;-75
2021/01/16 01:42:49;;;;;;;4.75;2.78;;;;;;;5.14;67.40;101364.28;4884188;29;20127;-77
2021/01/16 01:45:15;;;;;;;4.68;2.90;;;;;;;5.13;67.56;101365.34;4884714;29;20039;-74
2021/01/16 01:47:42;;;;;;;5.63;3.38;;;;;;;5.21;67.48;101382.25;4867773;29;20029;-75
2021/01/16 01:50:12;;;;;;;11.38;3.20;;;;;;;5.18;67.16;101373.69;4855448;29;20037;-78
2021/01/16 01:52:39;;;;;;;4.90;3.67;;;;;;;5.19;67.33;101387.03;4870767;29;20064;-74
2021/01/16 01:55:07;;;;;;;6.18;2.92;;;;;;;5.20;67.56;101385.16;4873159;29;20352;-74
2021/01/16 01:57:33;;;;;;;9.43;2.92;;;;;;;5.20;67.42;101380.56;4871114;29;20056;-73
2021/01/16 02:00:02;;;;;;;3.65;3.35;;;;;;;5.22;67.41;101377.66;4869933;29;20108;-75
2021/01/16 02:02:31;;;;;;;4.65;3.13;;;;;;;5.21;67.46;101371.41;4863901;29;20501;-75
2021/01/16 02:04:58;;;;;;;6.93;2.40;;;;;;;5.20;67.29;101377.03;4852874;29;20037;-74
2021/01/16 02:07:29;;;;;;;6.00;2.05;;;;;;;5.20;66.88;101363.47;4872848;29;20025;-76
2021/01/16 02:09:55;;;;;;;3.47;2.33;;;;;;;5.25;67.23;101360.97;4876402;29;20033;-74
2021/01/16 02:12:22;;;;;;;2.15;2.05;;;;;;;5.25;66.79;101360.97;4871475;29;20392;-75
2021/01/16 02:15:06;;;;;;;8.00;2.70;;;;;;;5.22;67.07;101358.66;4877449;29;20040;-75
2021/01/16 02:17:38;;;;;;;7.13;2.30;;;;;;;5.25;66.32;101350.13;4869524;29;20032;-75
2021/01/16 02:20:06;;;;;;;4.93;1.60;;;;;;;5.24;66.63;101348.44;4877771;29;20048;-75
2021/01/16 02:22:36;;;;;;;5.78;1.88;;;;;;;5.25;66.58;101339.25;4853613;29;20499;-75
2021/01/16 02:25:12;;;;;;;3.20;1.70;;;;;;;5.31;66.62;101330.28;4874752;29;20035;-75
2021/01/16 02:27:50;;;;;;;5.15;1.85;;;;;;;5.30;66.17;101330.50;4871054;29;20080;-76
2021/01/16 02:30:19;;;;;;;3.53;2.17;;;;;;;5.23;66.22;101314.25;4871723;29;20028;-76
2021/01/16 02:32:46;;;;;;;5.15;2.10;;;;;;;5.15;66.47;101311.72;4872626;29;20028;-75
2021/01/16 02:35:13;;;;;;;5.15;1.88;;;;;;;5.18;66.68;101311.31;4860821;29;20416;-71
2021/01/16 02:38:00;;;;;;;11.82;1.65;;;;;;;5.10;66.74;101289.84;4870362;29;20029;-73
2021/01/16 02:40:46;;;;;;;8.27;2.05;;;;;;;5.02;66.91;101280.88;4860436;29;20105;-76
2021/01/16 02:43:11;;;;;;;1.60;1.50;;;;;;;4.99;67.05;101272.31;4867709;29;20045;-74
2021/01/16 02:45:43;;;;;;;2.47;2.03;;;;;;;4.97;66.94;101245.41;4868894;29;20032;-72
2021/01/16 02:48:22;;;;;;;2.30;1.98;;;;;;;4.94;67.30;101239.59;4876147;29;20067;-79
2021/01/16 02:50:53;;;;;;;2.25;1.52;;;;;;;4.95;67.45;101247.50;4881539;29;20479;-78
2021/01/16 02:53:23;;;;;;;3.25;1.88;;;;;;;4.89;67.02;101237.47;4878248;29;20028;-78
2021/01/16 02:55:53;;;;;;;6.47;2.58;;;;;;;4.95;67.35;101242.09;4873031;29;20029;-79
2021/01/16 02:58:20;;;;;;;2.25;1.70;;;;;;;4.85;67.61;101211.84;4878733;29;20080;-78
2021/01/16 03:00:46;;;;;;;2.20;2.00;;;;;;;4.86;68.05;101227.91;4880208;29;20040;-77
2021/01/16 03:03:12;;;;;;;8.35;2.03;;;;;;;4.88;67.75;101197.88;4862781;29;20120;-76
2021/01/16 03:05:38;;;;;;;6.60;2.30;;;;;;;4.88;67.87;101219.56;4868651;29;20025;-76
2021/01/16 03:08:04;;;;;;;2.80;2.60;;;;;;;4.82;68.66;101199.56;4869423;29;20394;-77
2021/01/16 03:10:31;;;;;;;2.33;2.13;;;;;;;4.81;68.98;101203.28;4877206;29;20042;-77
2021/01/16 03:12:57;;;;;;;5.22;1.90;;;;;;;4.75;68.98;101204.13;4879583;29;20037;-76
2021/01/16 03:15:23;;;;;;;2.40;2.20;;;;;;;4.72;69.77;101199.97;4876027;29;20043;-77
2021/01/16 03:17:54;;;;;;;2.70;2.50;;;;;;;4.62;71.16;101187.88;4864705;29;20029;-79
2021/01/16 03:20:26;;;;;;;5.15;3.17;;;;;;;4.52;72.96;101183.69;4857688;29;20084;-79
2021/01/16 03:22:55;;;;;;;3.33;2.75;;;;;;;4.33;74.31;101190.75;4871716;29;20025;-76
2021/01/16 03:25:23;;;;;;;5.53;3.30;;;;;;;4.18;75.89;101182.00;4877833;29;20105;-77
2021/01/16 03:27:49;;;;;;;4.47;3.38;;;;;;;4.01;76.22;101181.53;4883105;29;20099;-78
2021/01/16 03:30:16;;;;;;;3.53;3.25;;;;;;;3.85;77.55;101180.00;4878257;29;20485;-78
2021/01/16 03:32:42;;;;;;;3.60;3.30;;;;;;;3.74;78.50;101167.06;4869388;29;20036;-77
2021/01/16 03:35:09;;;;;;;13.40;4.25;;;;;;;3.61;78.64;101159.75;4869846;29;23160;-78
2021/01/16 03:37:34;;;;;;;12.23;3.95;;;;;;;3.60;79.60;101174.31;4871611;29;20097;-77
2021/01/16 03:40:00;;;;;;;8.35;3.70;;;;;;;3.51;79.72;101159.28;4873620;29;20037;-78
2021/01/16 03:42:25;;;;;;;4.20;3.80;;;;;;;3.45;80.60;101150.94;4861736;29;20089;-77
2021/01/16 03:44:51;;;;;;;5.53;4.25;;;;;;;3.37;80.89;101142.16;4853707;29;20040;-78
2021/01/16 03:47:16;;;;;;;8.57;4.63;;;;;;;3.32;81.06;101146.28;4853270;29;20037;-78
2021/01/16 03:49:41;;;;;;;5.85;4.38;;;;;;;3.30;81.38;101148.38;4864738;29;20045;-78
2021/01/16 03:52:07;;;;;;;5.60;4.20;;;;;;;3.30;81.96;101148.38;4859451;29;20502;-78
2021/01/16 03:54:34;;;;;;;5.40;4.78;;;;;;;3.28;81.44;101144.19;4868964;29;20053;-77
2021/01/16 03:56:59;;;;;;;4.97;4.53;;;;;;;3.30;81.78;101148.38;4883429;29;20060;-77
2021/01/16 03:59:25;;;;;;;6.50;4.95;;;;;;;3.28;81.96;101161.25;4851155;29;20065;-78
2021/01/16 04:01:50;;;;;;;8.38;4.32;;;;;;;3.34;82.13;101161.50;4863673;29;20515;-73
2021/01/16 04:04:16;;;;;;;5.05;4.60;;;;;;;3.34;81.56;101166.91;4883513;29;20388;-77
2021/01/16 04:06:41;;;;;;;8.75;4.68;;;;;;;3.33;81.72;101155.25;4874065;29;20033;-77
2021/01/16 04:09:07;;;;;;;4.85;4.55;;;;;;;3.34;82.28;101158.78;4867727;29;20055;-77
2021/01/16 04:11:35;;;;;;;7.30;5.10;;;;;;;3.29;82.08;101135.06;4875997;29;20044;-77
2021/01/16 04:14:01;;;;;;;5.50;4.82;;;;;;;3.34;82.49;101137.16;4878084;29;20492;-78
2021/01/16 04:16:27;;;;;;;8.55;6.10;;;;;;;3.31;82.96;101133.84;4876717;29;20123;-77
2021/01/16 04:18:53;;;;;;;6.72;5.05;;;;;;;3.32;82.66;101113.84;4860678;29;20029;-77
2021/01/16 04:21:19;;;;;;;7.85;4.75;;;;;;;3.30;82.47;101106.97;4876041;29;20021;-77
2021/01/16 04:23:44;;;;;;;13.55;6.00;;;;;;;3.34;82.25;101099.31;4869241;29;20498;-76
2021/01/16 04:26:10;;;;;;;8.45;4.68;;;;;;;3.34;82.90;101083.09;4874065;29;20021;-78
2021/01/16 04:28:35;;;;;;;9.82;5.88;;;;;;;3.30;83.21;101071.81;4866951;29;20045;-77
2021/01/16 04:31:01;;;;;;;14.65;5.10;;;;;;;3.31;82.69;101085.16;4877881;29;20103;-76
2021/01/16 04:33:26;;;;;;;7.65;5.78;;;;;;;3.32;83.37;101081.41;4858566;29;20041;-73
2021/01/16 04:35:51;;;;;;;8.27;5.03;;;;;;;3.36;82.79;101081.84;4855271;29;20055;-74
2021/01/16 04:38:17;;;;;;;6.18;5.47;;;;;;;3.35;82.85;101069.38;4872096;29;20447;-73
2021/01/16 04:40:43;;;;;;;8.65;6.35;;;;;;;3.20;83.06;101047.03;4871956;29;20049;-74
2021/01/16 04:43:11;;;;;;;9.23;5.05;;;;;;;3.35;83.70;101049.63;4876775;29;20124;-74
2021/01/16 04:45:38;;;;;;;10.90;5.63;;;;;;;3.26;83.66;101057.91;4866963;29;20037;-75
2021/01/16 04:48:04;;;;;;;5.90;4.03;;;;;;;3.35;83.35;101046.91;4876376;29;20041;-75
2021/01/16 04:50:32;;;;;;;12.45;6.20;;;;;;;3.27;84.32;101027.13;4875930;29;20061;-75
2021/01/16 04:53:16;;;;;;;6.85;5.63;;;;;;;3.29;84.50;101016.94;4877855;29;20027;-76
2021/01/16 04:55:43;;;;;;;8.90;5.43;;;;;;;3.34;84.45;101024.44;4874141;29;20029;-75
2021/01/16 04:58:10;;;;;;;6.10;5.43;;;;;;;3.31;84.50;101006.78;4861863;29;20044;-75
2021/01/16 05:00:39;;;;;;;5.70;4.88;;;;;;;3.34;84.93;100991.16;4874685;29;20017;-75
2021/01/16 05:03:09;;;;;;;8.70;6.35;;;;;;;3.38;84.97;100971.63;4873940;29;20052;-75
2021/01/16 05:05:45;;;;;;;9.80;5.47;;;;;;;3.46;85.03;100984.09;4859937;29;20115;-75
2021/01/16 05:08:10;;;;;;;8.13;5.57;;;;;;;3.48;84.86;100965.81;4870149;29;20536;-73
2021/01/16 05:10:41;;;;;;;6.28;5.78;;;;;;;3.39;85.83;100934.59;4866943;29;20048;-74
2021/01/16 05:13:14;;;;;;;7.13;6.38;;;;;;;3.49;85.24;100945.88;4837429;29;20029;-74
2021/01/16 05:15:41;;;;;;;11.38;7.07;;;;;;;3.45;85.84;100923.78;4857177;29;20045;-74
2021/01/16 05:18:25;;;;;;;6.72;6.13;;;;;;;3.52;85.74;100910.28;4867835;29;20149;-74
2021/01/16 05:20:51;;;;;;;7.30;6.20;;;;;;;3.52;86.12;100875.13;4858329;29;20037;-75
2021/01/16 05:23:21;;;;;;;20.98;8.13;;;;;;;3.56;85.65;100865.53;4875181;29;20074;-75
2021/01/16 05:25:53;;;;;;;8.07;7.28;;;;;;;3.72;85.31;100880.50;4859319;29;20045;-74
2021/01/16 05:28:21;;;;;;;8.35;7.57;;;;;;;3.77;85.63;100879.91;4881309;29;20388;-74
2021/01/16 05:31:04;;;;;;;11.98;7.55;;;;;;;3.70;85.94;100874.50;4870986;29;20521;-74
2021/01/16 05:33:37;;;;;;;12.43;8.10;;;;;;;3.83;86.11;100849.31;4864185;29;20456;-75
2021/01/16 05:36:07;;;;;;;10.13;7.32;;;;;;;3.88;86.15;100846.78;4875841;29;20049;-76
2021/01/16 05:38:36;;;;;;;10.90;7.82;;;;;;;3.92;86.02;100850.72;4871573;29;20060;-73
2021/01/16 05:41:07;;;;;;;11.20;9.38;;;;;;;4.00;85.69;100849.66;4854702;29;20369;-74
2021/01/16 05:43:37;;;;;;;8.98;8.25;;;;;;;4.05;86.09;100832.81;4859381;29;20026;-74
2021/01/16 05:46:05;;;;;;;14.75;9.98;;;;;;;4.07;86.60;100831.53;4856568;29;20366;-74
2021/01/16 05:48:32;;;;;;;9.57;8.68;;;;;;;4.15;85.98;100819.66;4876454;29;20048;-74
2021/01/16 05:51:00;;;;;;;18.38;10.23;;;;;;;4.15;85.94;100806.94;4870535;29;20080;-76
2021/01/16 05:53:26;;;;;;;23.85;10.68;;;;;;;4.24;86.18;100807.53;4860006;29;20036;-74
2021/01/16 05:55:54;;;;;;;21.35;11.00;;;;;;;4.17;86.00;100802.16;4878146;29;20037;-74
2021/01/16 05:58:20;;;;;;;13.32;10.88;;;;;;;4.36;86.34;100811.22;4863379;29;20206;-73
2021/01/16 06:00:50;;;;;;;16.75;10.57;;;;;;;4.37;86.37;100793.94;4865733;29;20029;-73
2021/01/16 06:03:18;;;;;;;20.25;11.57;;;;;;;4.32;86.47;100791.06;4866473;29;20057;-74
2021/01/16 06:05:51;;;;;;;18.63;12.07;;;;;;;4.54;86.54;100815.09;4869361;29;20056;-73
2021/01/16 06:08:20;;;;;;;17.75;11.88;;;;;;;4.51;86.68;100813.69;4856922;29;20033;-73
2021/01/16 06:10:56;;;;;;;22.80;11.32;;;;;;;4.72;86.73;100819.81;4869593;29;20349;-74
2021/01/16 06:13:28;;;;;;;29.85;11.80;;;;;;;4.67;87.24;100800.66;4840463;29;20038;-74
2021/01/16 06:15:55;;;;;;;22.73;12.93;;;;;;;4.81;86.76;100810.38;4864602;29;20124;-73
2021/01/16 06:18:37;;;;;;;20.75;12.65;;;;;;;4.83;87.17;100783.03;4871529;29;20549;-74
2021/01/16 06:21:03;;;;;;;22.08;13.38;;;;;;;4.87;87.11;100784.28;4856300;29;20069;-73
2021/01/16 06:23:30;;;;;;;26.42;12.07;;;;;;;4.95;87.46;100766.91;4858911;29;20796;-73
2021/01/16 06:25:58;;;;;;;17.02;11.38;;;;;;;4.94;87.33;100752.53;4860160;29;20065;-74
2021/01/16 06:28:28;;;;;;;23.65;12.15;;;;;;;5.05;87.37;100748.25;4872957;29;20395;-73
2021/01/16 06:30:58;;;;;;;21.33;12.05;;;;;;;5.11;87.46;100741.13;4873182;29;20140;-72
2021/01/16 06:33:33;;;;;;;24.85;11.65;;;;;;;5.11;87.59;100724.88;4877921;29;20025;-73
2021/01/16 06:36:06;;;;;;;23.88;12.00;;;;;;;5.16;87.39;100728.56;4876010;29;20784;-73
2021/01/16 06:38:34;;;;;;;19.20;10.43;;;;;;;5.21;87.36;100726.03;4866363;29;20033;-74
2021/01/16 06:41:14;;;;;;;14.05;10.00;;;;;;;5.24;87.65;100708.47;4870339;29;20040;-74
2021/01/16 06:43:52;;;;;;;17.55;9.77;;;;;;;5.23;87.39;100701.41;4866814;29;20031;-74
2021/01/16 06:46:18;;;;;;;22.48;10.15;;;;;;;5.21;87.54;100687.22;4877856;29;20021;-74
2021/01/16 06:48:46;;;;;;;17.80;8.57;;;;;;;5.31;87.59;100708.41;4871890;29;20563;-73
2021/01/16 06:51:22;;;;;;;13.50;8.77;;;;;;;5.38;87.35;100698.34;4843779;29;20033;-73
2021/01/16 06:53:49;;;;;;;11.85;8.00;;;;;;;5.45;87.64;100681.97;4862257;29;20084;-74
2021/01/16 06:56:24;;;;;;;13.18;7.93;;;;;;;5.45;87.66;100657.56;4869181;29;20033;-76
2021/01/16 06:58:55;;;;;;;13.77;7.82;;;;;;;5.46;87.67;100654.66;4865097;29;20044;-75
2021/01/16 07:01:29;;;;;;;8.70;7.07;;;;;;;5.49;87.71;100650.63;4875133;29;20045;-75
2021/01/16 07:03:59;;;;;;;7.30;6.57;;;;;;;5.59;87.57;100650.94;4874984;29;20044;-77
2021/01/16 07:06:24;;;;;;;9.70;7.85;;;;;;;5.53;87.42;100652.66;4869932;29;20073;-76
2021/01/16 07:08:51;;;;;;;6.93;6.28;;;;;;;5.72;88.02;100648.06;4876640;29;21145;-75
2021/01/16 07:11:17;;;;;;;8.57;6.63;;;;;;;5.79;88.10;100656.09;4853272;29;20500;-75
2021/01/16 07:13:43;;;;;;;10.05;5.93;;;;;;;5.78;87.43;100635.44;4875969;29;20041;-77
2021/01/16 07:16:10;;;;;;;7.43;6.45;;;;;;;5.91;87.93;100642.59;4835633;29;20801;-75
2021/01/16 07:18:39;;;;;;;10.07;6.03;;;;;;;5.87;87.76;100630.53;4853263;29;20086;-76
2021/01/16 07:21:04;;;;;;;13.43;6.63;;;;;;;5.95;88.19;100622.06;4831377;29;20373;-77
2021/01/16 07:23:33;;;;;;;9.70;6.90;;;;;;;6.00;88.40;100603.25;4860846;29;20052;-77
2021/01/16 07:25:59;;;;;;;6.07;5.10;;;;;;;6.06;88.32;100574.31;4846235;29;20504;-77
2021/01/16 07:28:28;;;;;;;4.45;4.13;;;;;;;6.20;88.18;100593.97;4852599;29;20047;-77
2021/01/16 07:30:56;;;;;;;4.60;4.18;;;;;;;6.17;88.50;100583.56;4850613;29;20389;-76
2021/01/16 07:33:27;;;;;;;4.40;3.53;;;;;;;6.24;87.68;100576.16;4839362;29;20029;-78
2021/01/16 07:35:57;;;;;;;4.07;3.78;;;;;;;6.26;87.87;100574.03;4852607;29;20041;-79
2021/01/16 07:38:24;;;;;;;7.90;4.03;;;;;;;6.25;88.09;100572.34;4853490;29;20110;-76
2021/01/16 07:40:55;;;;;;;9.68;3.60;;;;;;;6.40;88.50;100586.31;4844645;29;20037;-77
2021/01/16 07:43:38;;;;;;;11.00;3.85;;;;;;;6.38;87.80;100552.31;4843524;29;20054;-77
2021/01/16 07:46:10;;;;;;;5.00;3.45;;;;;;;6.37;88.35;100559.63;4854153;29;20477;-78
2021/01/16 07:48:51;;;;;;;5.55;3.47;;;;;;;6.49;87.71;100556.09;4837510;29;20034;-78
2021/01/16 07:51:18;;;;;;;6.82;3.13;;;;;;;6.50;88.11;100541.44;4855797;29;20175;-78
2021/01/16 07:53:44;;;;;;;7.80;2.63;;;;;;;6.59;88.15;100553.63;4860207;29;20029;-78
2021/01/16 07:56:38;;;;;;;4.45;2.38;;;;;;;6.59;88.17;100534.59;4856736;29;20033;-79
2021/01/16 07:59:17;;;;;;;11.85;3.60;;;;;;;6.71;88.07;100538.13;4844391;29;20025;-78
2021/01/16 08:02:15;;;;;;;5.13;2.00;;;;;;;6.65;87.93;100525.50;4852601;29;20093;-79
2021/01/16 08:04:50;;;;;;;3.03;2.45;;;;;;;6.72;87.80;100534.34;4842937;29;20037;-78
2021/01/16 08:07:28;;;;;;;3.20;2.75;;;;;;;6.70;88.26;100517.47;4857292;29;20464;-78
2021/01/16 08:09:55;;;;;;;6.35;2.58;;;;;;;6.75;88.24;100533.06;4861325;29;20049;-75
2021/01/16 08:12:23;;;;;;;4.05;2.33;;;;;;;6.72;88.61;100509.91;4857412;29;20041;-73
2021/01/16 08:14:52;;;;;;;6.88;2.63;;;;;;;6.71;88.20;100500.09;4872433;29;20877;-73
2021/01/16 08:17:20;;;;;;;5.75;2.20;;;;;;;6.73;87.96;100508.84;4874479;29;20074;-74
2021/01/16 08:19:46;;;;;;;4.88;1.70;;;;;;;6.86;88.50;100520.50;4872267;29;20029;-75
2021/01/16 08:22:15;;;;;;;5.78;2.00;;;;;;;6.79;87.79;100502.44;4871537;29;20056;-75
2021/01/16 08:24:55;;;;;;;4.95;2.05;;;;;;;6.76;87.50;100491.22;4869971;29;20072;-76
2021/01/16 08:27:26;;;;;;;2.42;1.40;;;;;;;6.81;87.84;100489.44;4878684;29;20021;-74
2021/01/16 08:29:51;;;;;;;3.22;1.50;;;;;;;6.85;88.21;100491.66;4870912;29;20033;-74
2021/01/16 08:32:19;;;;;;;2.50;1.15;;;;;;;6.94;87.93;100501.94;4874014;29;20044;-75
2021/01/16 08:35:04;;;;;;;1.33;1.23;;;;;;;6.95;88.77;100497.31;4874087;29;20544;-75
2021/01/16 08:37:37;;;;;;;2.28;1.10;;;;;;;6.93;88.22;100480.44;4877511;29;20036;-74
2021/01/16 08:40:08;;;;;;;2.83;1.60;;;;;;;6.87;87.97;100467.81;4879516;29;20039;-75
2021/01/16 08:42:35;;;;;;;4.97;1.33;;;;;;;6.86;88.65;100458.00;4872676;29;20036;-76
2021/01/16 08:45:04;;;;;;;3.85;1.85;;;;;;;6.85;88.43;100445.44;4873866;29;20025;-78
2021/01/16 08:47:39;;;;;;;1.55;1.45;;;;;;;6.93;88.75;100469.56;4847349;29;20025;-74
2021/01/16 08:50:16;;;;;;;3.50;1.87;;;;;;;6.91;88.71;100449.94;4877622;29;20062;-75
2021/01/16 08:52:44;;;;;;;2.28;1.58;;;;;;;6.99;87.95;100468.59;4865656;29;20268;-76
2021/01/16 08:55:09;;;;;;;1.60;1.15;;;;;;;6.89;88.54;100446.63;4871323;29;20025;-74
2021/01/16 08:57:37;;;;;;;1.77;1.65;;;;;;;7.03;89.08;100453.44;4872850;29;20373;-76
2021/01/16 09:00:25;;;;;;;2.40;1.30;;;;;;;7.10;87.99;100454.13;4873135;29;20128;-75
2021/01/16 09:03:20;;;;;;;3.33;1.50;;;;;;;7.11;88.24;100453.06;4877997;29;20032;-76
2021/01/16 09:05:50;;;;;;;1.05;1.05;;;;;;;7.10;88.73;100454.13;4843502;29;20065;-76
2021/01/16 09:08:21;;;;;;;3.17;1.27;;;;;;;6.98;88.95;100426.16;4875243;29;20108;-75
2021/01/16 09:10:47;;;;;;;1.40;1.30;;;;;;;7.15;88.09;100456.97;4875197;29;20060;-76
2021/01/16 09:13:29;;;;;;;1.13;1.13;;;;;;;7.07;88.30;100432.88;4875168;29;20060;-75
2021/01/16 09:15:56;;;;;;;1.50;1.30;;;;;;;7.19;88.83;100451.03;4856683;29;20413;-77
2021/01/16 09:18:21;;;;;;;2.40;1.38;;;;;;;7.21;87.70;100454.31;4861573;29;20032;-77
2021/01/16 09:20:53;;;;;;;7.70;1.98;;;;;;;7.25;88.26;100455.50;4834859;29;20129;-77
2021/01/16 09:23:18;;;;;;;4.05;1.30;;;;;;;7.21;88.18;100448.88;4853003;29;20028;-75
2021/01/16 09:26:03;;;;;;;1.00;1.00;;;;;;;7.28;88.39;100450.38;4836421;29;20053;-76
2021/01/16 09:28:43;;;;;;;1.55;1.45;;;;;;;7.30;87.74;100441.97;4842299;29;20089;-75
2021/01/16 09:31:26;;;;;;;1.80;1.42;;;;;;;7.23;87.71;100430.41;4852954;29;20037;-78
2021/01/16 09:34:10;;;;;;;2.35;1.13;;;;;;;7.32;88.94;100442.56;4856227;29;20146;-76
2021/01/16 09:36:44;;;;;;;1.50;0.90;;;;;;;7.33;87.78;100439.59;4862741;29;20120;-76
2021/01/16 09:39:17;;;;;;;1.02;0.98;;;;;;;7.30;88.95;100431.09;4843503;29;20025;-78
2021/01/16 09:41:47;;;;;;;0.75;0.73;;;;;;;7.29;87.79;100426.75;4862021;29;20081;-77
2021/01/16 09:44:16;;;;;;;1.50;0.73;;;;;;;7.40;87.91;100431.28;4861487;29;20468;-76
2021/01/16 09:46:42;;;;;;;1.10;0.65;;;;;;;7.45;88.24;100434.09;4851292;29;20065;-75
2021/01/16 09:49:22;;;;;;;;;;;;;;;;;;;;;
2021/01/16 09:52:02;;;;;;;1.48;0.68;;;;;;;7.50;88.50;100434.22;4860779;29;20488;-77
2021/01/16 09:54:31;;;;;;;0.43;0.40;;;;;;;7.47;88.51;100431.94;4850539;29;20037;-77
2021/01/16 09:57:01;;;;;;;0.60;0.47;;;;;;;7.57;87.54;100441.38;4860079;29;20021;-77
2021/01/16 09:59:28;;;;;;;0.77;0.77;;;;;;;7.59;88.23;100428.34;4855553;29;20117;-75
2021/01/16 10:02:23;;;;;;;1.30;0.93;;;;;;;7.58;88.00;100437.56;4853525;29;20050;-77
2021/01/16 10:05:10;;;;;;;;;;;;;;;;;;;;;
2021/01/16 10:07:45;;;;;;;0.95;0.47;;;;;;;7.65;87.94;100405.56;4858363;29;20029;-76
2021/01/16 10:10:12;;;;;;;2.22;0.80;;;;;;;7.69;88.73;100391.25;4842797;29;20054;-76
2021/01/16 10:12:41;;;;;;;0.63;0.50;;;;;;;7.92;88.67;100413.09;4860513;29;20034;-77
2021/01/16 10:15:10;;;;;;;0.50;0.47;;;;;;;7.98;87.55;100417.53;4837872;29;20100;-75
2021/01/16 10:17:40;;;;;;;0.73;0.47;;;;;;;8.06;88.55;100422.59;4859134;29;20535;-77
2021/01/16 10:20:09;;;;;;;0.32;0.30;;;;;;;8.01;87.65;100414.31;4858767;29;20041;-77
2021/01/16 10:22:35;;;;;;;0.30;0.20;;;;;;;8.04;88.49;100416.53;4865736;29;20104;-78
2021/01/16 10:25:08;;;;;;;0.32;0.30;;;;;;;8.05;87.85;100404.59;4883299;29;20440;-78
2021/01/16 10:27:44;;;;;;;0.38;0.38;;;;;;;8.22;88.55;100426.34;4883444;29;20025;-77
2021/01/16 10:30:16;;;;;;;0.47;0.45;;;;;;;8.19;88.23;100415.94;4876712;29;20032;-75
2021/01/16 10:32:42;;;;;;;0.90;0.20;;;;;;;8.26;88.43;100438.38;4876201;29;20033;-74
2021/01/16 10:35:08;;;;;;;0.65;0.20;;;;;;;8.32;88.34;100431.09;4875429;29;20025;-73
2021/01/16 10:37:40;;;;;;;0.47;0.10;;;;;;;8.36;87.39;100427.63;4871489;29;20117;-74
2021/01/16 10:40:06;;;;;;;0.05;0.05;;;;;;;8.39;87.87;100431.75;4863030;29;20025;-73
2021/01/16 10:43:00;;;;;;;0.10;0.10;;;;;;;8.48;87.83;100430.25;4864338;29;20093;-73
2021/01/16 10:45:32;;;;;;;0.47;0.20;;;;;;;8.59;87.91;100430.44;4871278;29;20055;-73
2021/01/16 10:48:17;;;;;;;0.28;0.00;;;;;;;8.67;88.11;100428.09;4876818;29;20029;-74
2021/01/16 10:50:55;;;;;;;0.13;0.13;;;;;;;8.67;87.51;100410.88;4878681;29;20093;-76
2021/01/16 10:53:37;;;;;;;0.10;0.10;;;;;;;8.85;88.27;100407.03;4891920;29;20032;-78
2021/01/16 10:56:14;;;;;;;0.00;0.00;;;;;;;9.17;87.82;100420.75;4889319;29;20009;-77
2021/01/16 10:58:44;;;;;;;0.28;0.10;;;;;;;9.52;87.22;100424.91;4897074;29;20036;-80
2021/01/16 11:01:46;;;;;;;0.00;0.00;;;;;;;9.52;86.14;100405.81;4903515;29;20077;-83
2021/01/16 11:04:28;;;;;;;0.00;0.00;;;;;;;9.43;86.05;100408.19;4883547;29;20045;-78
2021/01/16 11:07:00;;;;;;;0.00;0.00;;;;;;;9.38;86.31;100407.31;4897520;29;20017;-78
2021/01/16 11:09:43;;;;;;;0.20;0.00;;;;;;;9.43;86.16;100401.88;4873210;29;20025;-76
2021/01/16 11:12:09;;;;;;;0.05;0.03;;;;;;;9.63;87.08;100406.72;4878860;29;20040;-78
2021/01/16 11:14:43;;;;;;;0.30;0.30;;;;;;;9.80;86.61;100406.59;4896205;29;20045;-77
2021/01/16 11:17:12;;;;;;;2.25;0.73;;;;;;;9.89;85.61;100410.47;4898843;29;20009;-77
2021/01/16 11:19:44;;;;;;;0.85;0.80;;;;;;;10.41;86.45;100399.88;4875209;29;20061;-79
2021/01/16 11:22:15;;;;;;;3.17;1.05;;;;;;;11.54;84.10;100400.22;4884288;29;20065;-80
2021/01/16 11:24:53;;;;;;;3.80;1.10;;;;;;;11.55;81.64;100409.25;4861442;29;20081;-81
2021/01/16 11:30:30;;;;;;;1.15;0.90;;;;;;;10.65;83.69;100403.81;4826503;29;20019;-77
2021/01/16 11:33:25;;;;;;;2.55;1.52;;;;;;;10.69;85.39;100397.81;4896187;29;20056;-77
2021/01/16 11:36:15;;;;;;;3.38;1.13;;;;;;;10.91;84.25;100393.00;4888649;29;20061;-78
2021/01/16 11:38:49;;;;;;;5.63;1.50;;;;;;;11.47;83.90;100377.75;4898715;29;20031;-82
2021/01/16 11:41:52;;;;;;;1.52;1.10;;;;;;;12.67;82.08;100389.06;4888353;29;20033;-77
2021/01/16 11:44:18;;;;;;;2.25;1.20;;;;;;;13.98;77.16;100379.69;4883866;29;20029;-81
2021/01/16 11:46:46;;;;;;;1.77;0.80;;;;;;;15.11;74.60;100384.69;4880453;29;20108;-78
2021/01/16 11:49:18;;;;;;;1.05;0.80;;;;;;;16.19;71.38;100374.66;4878895;29;20045;-78
2021/01/16 11:52:03;;;;;;;;;;;;;;;;;;;;;
2021/01/16 11:54:31;;;;;;;5.35;0.95;;;;;;;17.15;66.69;100374.09;4895570;29;20112;-81